Brier Hill, NY (13614)

4:41 AM EST on December 09, 2016 (GMT -0500)
Pearl Street West | | Change Station

Elev 0 ft 44.58 °N, 75.71 °W | Updated 5 minutes ago

Partly Cloudy
Partly Cloudy
43.0 °F
Feels Like 42 °F
N
3.1
Wind Variable Wind from SW
Gusts 8.7 mph

Today
High -- | Low -- °F
--% Chance of Precip.
Yesterday
High -- | Low -- °F
Precip. -- in
Pressure 29.99 in
Visibility 10.0 miles
Clouds Clear
Windchill 42 °F
Dew Point 30 °F
Humidity 61%
Rainfall Not available.
Snow Depth Not available.
7:27 AM 4:22 PM
Waxing Gibbous, 72% visible
METAR KOGS 090935Z AUTO 29010G15KT 10SM CLR M04/M08 A2999 RMK AO2 T10411080 TSNO
Pressure 29.99 in
Visibility 10.0 miles
Clouds Clear
Windchill 42 °F
Dew Point 30 °F
Humidity 61%
Rainfall Not available.
Snow Depth Not available.
7:27 AM 4:22 PM
Waxing Gibbous, 72% visible
METAR KOGS 090935Z AUTO 29010G15KT 10SM CLR M04/M08 A2999 RMK AO2 T10411080 TSNO

10-Day Weather Forecast

Almanac

Astronomy

Dec. 09, 2016 Rise Set
Actual Time
Civil Twilight
Nautical Twilight
Astronomical Twilight
Moon
Length of Visible Light
Length of Day
Tomorrow will be .
, % of the Moon is Illuminated

Today's Extremes

State Highs State Lows

Community

WunderPhotos

Upload Photos

1,956,371 photos uploaded!

WunderBlog® & News

Nearby

Air Quality

  Air Quality AQ Index Pollutant
Not available.

Snow Depth

Station Depth Elevation

Earthquake Activity

City Distance Mag. Time & Date
Minimum magnitude displayed is 2.5.

Coastal Water Temperatures

Place Temperature

Stations

Nearby Weather Stations

Station Location Temp. Windchill Dew Point Humidity Wind Precip. Elev Updated Type
                   

Watches & Warnings

There are currently no watches in effect.